sensor_id;sensor_type;location;lat;lon;timestamp;P1;durP1;ratioP1;P2;durP2;ratioP2
59416;SDS011;45222;52.458;20.914;2022-09-09T00:01:35;10.00;;;5.60;;
59416;SDS011;45222;52.458;20.914;2022-09-09T00:04:45;10.10;;;6.00;;
59416;SDS011;45222;52.458;20.914;2022-09-09T00:07:57;10.90;;;6.10;;
59416;SDS011;45222;52.458;20.914;2022-09-09T00:14:09;11.10;;;6.20;;
59416;SDS011;45222;52.458;20.914;2022-09-09T00:17:24;10.10;;;5.70;;
59416;SDS011;45222;52.458;20.914;2022-09-09T00:20:38;11.80;;;6.20;;
59416;SDS011;45222;52.458;20.914;2022-09-09T00:23:48;10.70;;;6.30;;
59416;SDS011;45222;52.458;20.914;2022-09-09T00:26:56;11.20;;;6.00;;
59416;SDS011;45222;52.458;20.914;2022-09-09T00:30:12;11.00;;;6.30;;
59416;SDS011;45222;52.458;20.914;2022-09-09T00:33:22;11.00;;;6.10;;
59416;SDS011;45222;52.458;20.914;2022-09-09T00:36:26;11.10;;;6.00;;
59416;SDS011;45222;52.458;20.914;2022-09-09T00:39:31;10.00;;;5.70;;
59416;SDS011;45222;52.458;20.914;2022-09-09T00:42:38;10.10;;;6.10;;
59416;SDS011;45222;52.458;20.914;2022-09-09T00:49:27;13.50;;;6.00;;
59416;SDS011;45222;52.458;20.914;2022-09-09T00:52:42;9.90;;;5.70;;
59416;SDS011;45222;52.458;20.914;2022-09-09T00:55:52;10.60;;;6.10;;
59416;SDS011;45222;52.458;20.914;2022-09-09T00:59:05;10.00;;;6.10;;
59416;SDS011;45222;52.458;20.914;2022-09-09T01:02:25;10.30;;;6.00;;
59416;SDS011;45222;52.458;20.914;2022-09-09T01:05:34;10.70;;;6.30;;
59416;SDS011;45222;52.458;20.914;2022-09-09T01:08:52;10.70;;;5.80;;
59416;SDS011;45222;52.458;20.914;2022-09-09T01:12:02;11.00;;;6.00;;
59416;SDS011;45222;52.458;20.914;2022-09-09T01:15:16;11.90;;;6.50;;
59416;SDS011;45222;52.458;20.914;2022-09-09T01:18:23;10.00;;;6.40;;
59416;SDS011;45222;52.458;20.914;2022-09-09T01:21:32;12.00;;;6.40;;
59416;SDS011;45222;52.458;20.914;2022-09-09T01:24:48;9.80;;;6.00;;
59416;SDS011;45222;52.458;20.914;2022-09-09T01:28:08;12.60;;;7.10;;
59416;SDS011;45222;52.458;20.914;2022-09-09T01:31:14;10.70;;;6.10;;
59416;SDS011;45222;52.458;20.914;2022-09-09T01:34:38;13.50;;;6.50;;
59416;SDS011;45222;52.458;20.914;2022-09-09T01:37:51;10.80;;;6.60;;
59416;SDS011;45222;52.458;20.914;2022-09-09T01:40:53;11.80;;;6.80;;
59416;SDS011;45222;52.458;20.914;2022-09-09T01:43:56;11.60;;;6.70;;
59416;SDS011;45222;52.458;20.914;2022-09-09T01:46:59;11.50;;;6.30;;
59416;SDS011;45222;52.458;20.914;2022-09-09T01:50:02;15.70;;;6.40;;
59416;SDS011;45222;52.458;20.914;2022-09-09T01:53:05;11.40;;;6.30;;
59416;SDS011;45222;52.458;20.914;2022-09-09T01:56:12;10.90;;;6.40;;
59416;SDS011;45222;52.458;20.914;2022-09-09T01:59:31;10.80;;;6.50;;
59416;SDS011;45222;52.458;20.914;2022-09-09T02:02:45;12.50;;;6.60;;
59416;SDS011;45222;52.458;20.914;2022-09-09T02:06:02;11.50;;;6.30;;
59416;SDS011;45222;52.458;20.914;2022-09-09T02:09:10;11.70;;;6.60;;
59416;SDS011;45222;52.458;20.914;2022-09-09T02:12:17;10.30;;;6.10;;
59416;SDS011;45222;52.458;20.914;2022-09-09T02:15:27;12.40;;;7.00;;
59416;SDS011;45222;52.458;20.914;2022-09-09T02:18:35;11.90;;;6.80;;
59416;SDS011;45222;52.458;20.914;2022-09-09T02:21:42;10.60;;;6.50;;
59416;SDS011;45222;52.458;20.914;2022-09-09T02:24:47;10.80;;;6.10;;
59416;SDS011;45222;52.458;20.914;2022-09-09T02:27:53;9.30;;;6.00;;
59416;SDS011;45222;52.458;20.914;2022-09-09T02:30:56;10.10;;;6.60;;
59416;SDS011;45222;52.458;20.914;2022-09-09T02:34:00;12.10;;;6.70;;
59416;SDS011;45222;52.458;20.914;2022-09-09T02:37:05;11.00;;;6.40;;
59416;SDS011;45222;52.458;20.914;2022-09-09T02:40:11;10.80;;;6.10;;
59416;SDS011;45222;52.458;20.914;2022-09-09T02:43:16;9.60;;;6.40;;
59416;SDS011;45222;52.458;20.914;2022-09-09T02:46:24;10.30;;;6.50;;
59416;SDS011;45222;52.458;20.914;2022-09-09T02:49:40;11.30;;;6.50;;
59416;SDS011;45222;52.458;20.914;2022-09-09T02:52:54;9.50;;;6.20;;
59416;SDS011;45222;52.458;20.914;2022-09-09T02:56:10;11.20;;;6.70;;
59416;SDS011;45222;52.458;20.914;2022-09-09T02:59:16;11.70;;;6.30;;
59416;SDS011;45222;52.458;20.914;2022-09-09T03:02:19;10.40;;;6.10;;
59416;SDS011;45222;52.458;20.914;2022-09-09T03:05:22;11.20;;;6.20;;
59416;SDS011;45222;52.458;20.914;2022-09-09T03:08:25;10.30;;;5.90;;
59416;SDS011;45222;52.458;20.914;2022-09-09T03:11:28;12.20;;;6.30;;
59416;SDS011;45222;52.458;20.914;2022-09-09T03:14:31;11.10;;;5.80;;
59416;SDS011;45222;52.458;20.914;2022-09-09T03:17:34;9.20;;;6.10;;
59416;SDS011;45222;52.458;20.914;2022-09-09T03:20:40;10.50;;;6.00;;
59416;SDS011;45222;52.458;20.914;2022-09-09T03:23:53;10.60;;;6.30;;
59416;SDS011;45222;52.458;20.914;2022-09-09T03:27:03;10.40;;;5.80;;
59416;SDS011;45222;52.458;20.914;2022-09-09T03:30:06;10.40;;;6.10;;
59416;SDS011;45222;52.458;20.914;2022-09-09T03:33:10;10.90;;;6.10;;
59416;SDS011;45222;52.458;20.914;2022-09-09T03:36:13;10.70;;;7.00;;
59416;SDS011;45222;52.458;20.914;2022-09-09T03:39:16;11.40;;;6.20;;
59416;SDS011;45222;52.458;20.914;2022-09-09T03:42:19;9.60;;;6.20;;
59416;SDS011;45222;52.458;20.914;2022-09-09T03:45:22;10.90;;;6.10;;
59416;SDS011;45222;52.458;20.914;2022-09-09T03:48:24;11.00;;;6.30;;
59416;SDS011;45222;52.458;20.914;2022-09-09T03:51:32;10.20;;;6.20;;
59416;SDS011;45222;52.458;20.914;2022-09-09T03:54:37;9.50;;;5.80;;
59416;SDS011;45222;52.458;20.914;2022-09-09T03:57:40;9.70;;;6.30;;
59416;SDS011;45222;52.458;20.914;2022-09-09T04:00:47;10.70;;;6.60;;
59416;SDS011;45222;52.458;20.914;2022-09-09T04:04:06;10.80;;;6.10;;
59416;SDS011;45222;52.458;20.914;2022-09-09T04:07:20;11.20;;;5.70;;
59416;SDS011;45222;52.458;20.914;2022-09-09T04:10:33;8.30;;;5.50;;
59416;SDS011;45222;52.458;20.914;2022-09-09T04:13:46;10.10;;;6.10;;
59416;SDS011;45222;52.458;20.914;2022-09-09T04:16:49;9.80;;;5.60;;
59416;SDS011;45222;52.458;20.914;2022-09-09T04:19:51;9.90;;;6.10;;
59416;SDS011;45222;52.458;20.914;2022-09-09T04:22:54;9.00;;;6.40;;
59416;SDS011;45222;52.458;20.914;2022-09-09T04:25:57;10.90;;;6.20;;
59416;SDS011;45222;52.458;20.914;2022-09-09T04:29:01;9.80;;;5.70;;
59416;SDS011;45222;52.458;20.914;2022-09-09T04:32:04;9.60;;;5.80;;
59416;SDS011;45222;52.458;20.914;2022-09-09T04:35:07;9.40;;;5.60;;
59416;SDS011;45222;52.458;20.914;2022-09-09T04:38:10;12.00;;;6.00;;
59416;SDS011;45222;52.458;20.914;2022-09-09T04:41:13;9.50;;;5.20;;
59416;SDS011;45222;52.458;20.914;2022-09-09T04:44:17;10.20;;;6.60;;
59416;SDS011;45222;52.458;20.914;2022-09-09T04:47:20;10.20;;;5.90;;
59416;SDS011;45222;52.458;20.914;2022-09-09T04:50:23;9.90;;;5.80;;
59416;SDS011;45222;52.458;20.914;2022-09-09T04:53:26;9.40;;;5.50;;
59416;SDS011;45222;52.458;20.914;2022-09-09T04:56:29;9.50;;;5.40;;
59416;SDS011;45222;52.458;20.914;2022-09-09T04:59:32;8.50;;;5.00;;
59416;SDS011;45222;52.458;20.914;2022-09-09T05:02:37;8.90;;;5.20;;
59416;SDS011;45222;52.458;20.914;2022-09-09T05:05:40;9.90;;;5.30;;
59416;SDS011;45222;52.458;20.914;2022-09-09T05:08:42;8.90;;;5.30;;
59416;SDS011;45222;52.458;20.914;2022-09-09T05:11:46;8.50;;;5.30;;
59416;SDS011;45222;52.458;20.914;2022-09-09T05:14:50;10.30;;;5.20;;
59416;SDS011;45222;52.458;20.914;2022-09-09T05:17:52;9.60;;;5.00;;
59416;SDS011;45222;52.458;20.914;2022-09-09T05:21:00;12.70;;;5.30;;
59416;SDS011;45222;52.458;20.914;2022-09-09T05:24:03;9.20;;;5.10;;
59416;SDS011;45222;52.458;20.914;2022-09-09T05:27:06;8.30;;;5.30;;
59416;SDS011;45222;52.458;20.914;2022-09-09T05:30:10;9.60;;;5.70;;
59416;SDS011;45222;52.458;20.914;2022-09-09T05:33:13;9.00;;;5.20;;
59416;SDS011;45222;52.458;20.914;2022-09-09T05:36:16;9.80;;;5.50;;
59416;SDS011;45222;52.458;20.914;2022-09-09T05:39:20;7.90;;;4.50;;
59416;SDS011;45222;52.458;20.914;2022-09-09T05:42:23;7.30;;;4.50;;
59416;SDS011;45222;52.458;20.914;2022-09-09T05:45:26;9.30;;;4.40;;
59416;SDS011;45222;52.458;20.914;2022-09-09T05:48:29;9.40;;;4.70;;
59416;SDS011;45222;52.458;20.914;2022-09-09T05:51:33;8.40;;;5.40;;
59416;SDS011;45222;52.458;20.914;2022-09-09T05:54:35;8.50;;;4.70;;
59416;SDS011;45222;52.458;20.914;2022-09-09T05:57:38;9.10;;;4.60;;
59416;SDS011;45222;52.458;20.914;2022-09-09T06:00:41;7.80;;;4.30;;
59416;SDS011;45222;52.458;20.914;2022-09-09T06:03:45;8.20;;;4.50;;
59416;SDS011;45222;52.458;20.914;2022-09-09T06:06:49;9.30;;;4.40;;
59416;SDS011;45222;52.458;20.914;2022-09-09T06:09:52;7.50;;;4.50;;
59416;SDS011;45222;52.458;20.914;2022-09-09T06:12:54;8.20;;;4.10;;
59416;SDS011;45222;52.458;20.914;2022-09-09T06:15:57;9.20;;;4.50;;
59416;SDS011;45222;52.458;20.914;2022-09-09T06:19:01;8.10;;;4.10;;
59416;SDS011;45222;52.458;20.914;2022-09-09T06:22:05;8.80;;;4.40;;
59416;SDS011;45222;52.458;20.914;2022-09-09T06:25:08;8.00;;;4.20;;
59416;SDS011;45222;52.458;20.914;2022-09-09T06:28:11;7.10;;;4.50;;
59416;SDS011;45222;52.458;20.914;2022-09-09T06:31:15;7.80;;;4.20;;
59416;SDS011;45222;52.458;20.914;2022-09-09T06:34:23;6.80;;;3.90;;
59416;SDS011;45222;52.458;20.914;2022-09-09T06:37:25;7.30;;;4.10;;
59416;SDS011;45222;52.458;20.914;2022-09-09T06:40:28;6.80;;;4.10;;
59416;SDS011;45222;52.458;20.914;2022-09-09T06:43:32;7.50;;;4.20;;
59416;SDS011;45222;52.458;20.914;2022-09-09T06:46:34;6.90;;;4.10;;
59416;SDS011;45222;52.458;20.914;2022-09-09T06:49:37;7.00;;;4.10;;
59416;SDS011;45222;52.458;20.914;2022-09-09T06:52:40;7.50;;;3.90;;
59416;SDS011;45222;52.458;20.914;2022-09-09T06:55:42;6.70;;;3.80;;
59416;SDS011;45222;52.458;20.914;2022-09-09T06:58:46;6.40;;;3.70;;
59416;SDS011;45222;52.458;20.914;2022-09-09T07:01:50;7.30;;;3.80;;
59416;SDS011;45222;52.458;20.914;2022-09-09T07:04:54;6.20;;;3.90;;
59416;SDS011;45222;52.458;20.914;2022-09-09T07:07:59;6.60;;;3.90;;
59416;SDS011;45222;52.458;20.914;2022-09-09T07:11:05;8.20;;;4.30;;
59416;SDS011;45222;52.458;20.914;2022-09-09T07:14:09;7.10;;;4.40;;
59416;SDS011;45222;52.458;20.914;2022-09-09T07:17:14;7.00;;;4.20;;
59416;SDS011;45222;52.458;20.914;2022-09-09T07:20:16;8.10;;;4.40;;
59416;SDS011;45222;52.458;20.914;2022-09-09T07:23:19;6.90;;;3.90;;
59416;SDS011;45222;52.458;20.914;2022-09-09T07:26:22;6.90;;;4.10;;
59416;SDS011;45222;52.458;20.914;2022-09-09T07:29:26;6.60;;;3.70;;
59416;SDS011;45222;52.458;20.914;2022-09-09T07:32:29;7.30;;;4.30;;
59416;SDS011;45222;52.458;20.914;2022-09-09T07:35:31;7.30;;;4.20;;
59416;SDS011;45222;52.458;20.914;2022-09-09T07:38:38;8.10;;;4.50;;
59416;SDS011;45222;52.458;20.914;2022-09-09T07:41:41;9.60;;;4.50;;
59416;SDS011;45222;52.458;20.914;2022-09-09T07:44:45;7.00;;;4.20;;
59416;SDS011;45222;52.458;20.914;2022-09-09T07:47:48;7.00;;;4.00;;
59416;SDS011;45222;52.458;20.914;2022-09-09T07:50:50;6.90;;;4.00;;
59416;SDS011;45222;52.458;20.914;2022-09-09T07:53:54;7.40;;;4.70;;
59416;SDS011;45222;52.458;20.914;2022-09-09T07:56:59;7.10;;;4.70;;
59416;SDS011;45222;52.458;20.914;2022-09-09T08:00:02;7.10;;;4.30;;
59416;SDS011;45222;52.458;20.914;2022-09-09T08:03:06;7.40;;;4.30;;
59416;SDS011;45222;52.458;20.914;2022-09-09T08:06:09;8.30;;;4.40;;
59416;SDS011;45222;52.458;20.914;2022-09-09T08:09:13;9.30;;;4.70;;
59416;SDS011;45222;52.458;20.914;2022-09-09T08:12:16;8.00;;;5.10;;
59416;SDS011;45222;52.458;20.914;2022-09-09T08:15:19;7.80;;;4.50;;
59416;SDS011;45222;52.458;20.914;2022-09-09T08:18:22;7.40;;;4.50;;
59416;SDS011;45222;52.458;20.914;2022-09-09T08:21:25;7.30;;;4.60;;
59416;SDS011;45222;52.458;20.914;2022-09-09T08:24:29;8.40;;;4.60;;
59416;SDS011;45222;52.458;20.914;2022-09-09T08:27:32;7.50;;;4.90;;
59416;SDS011;45222;52.458;20.914;2022-09-09T08:30:35;8.60;;;5.10;;
59416;SDS011;45222;52.458;20.914;2022-09-09T08:33:38;8.20;;;5.10;;
59416;SDS011;45222;52.458;20.914;2022-09-09T08:36:42;7.70;;;4.80;;
59416;SDS011;45222;52.458;20.914;2022-09-09T08:39:46;7.50;;;4.70;;
59416;SDS011;45222;52.458;20.914;2022-09-09T08:42:52;7.80;;;5.10;;
59416;SDS011;45222;52.458;20.914;2022-09-09T08:46:00;7.90;;;5.30;;
59416;SDS011;45222;52.458;20.914;2022-09-09T08:52:21;8.80;;;5.50;;
59416;SDS011;45222;52.458;20.914;2022-09-09T08:55:31;9.40;;;5.80;;
59416;SDS011;45222;52.458;20.914;2022-09-09T08:58:42;9.50;;;5.60;;
59416;SDS011;45222;52.458;20.914;2022-09-09T09:01:55;8.60;;;5.70;;
59416;SDS011;45222;52.458;20.914;2022-09-09T09:05:12;8.90;;;6.10;;
59416;SDS011;45222;52.458;20.914;2022-09-09T09:08:33;9.90;;;6.20;;
59416;SDS011;45222;52.458;20.914;2022-09-09T09:11:49;11.00;;;6.10;;
59416;SDS011;45222;52.458;20.914;2022-09-09T09:14:54;9.60;;;6.40;;
59416;SDS011;45222;52.458;20.914;2022-09-09T09:18:00;8.90;;;6.00;;
59416;SDS011;45222;52.458;20.914;2022-09-09T09:21:03;9.60;;;6.60;;
59416;SDS011;45222;52.458;20.914;2022-09-09T09:24:15;8.80;;;5.90;;
59416;SDS011;45222;52.458;20.914;2022-09-09T09:27:25;9.60;;;6.20;;
59416;SDS011;45222;52.458;20.914;2022-09-09T09:30:35;8.20;;;5.70;;
59416;SDS011;45222;52.458;20.914;2022-09-09T09:33:43;9.70;;;5.90;;
59416;SDS011;45222;52.458;20.914;2022-09-09T09:36:53;9.80;;;6.10;;
59416;SDS011;45222;52.458;20.914;2022-09-09T09:40:07;9.30;;;6.40;;
59416;SDS011;45222;52.458;20.914;2022-09-09T09:43:17;10.20;;;7.10;;
59416;SDS011;45222;52.458;20.914;2022-09-09T09:46:24;9.70;;;6.80;;
59416;SDS011;45222;52.458;20.914;2022-09-09T09:49:27;10.30;;;6.90;;
59416;SDS011;45222;52.458;20.914;2022-09-09T09:52:30;9.60;;;7.00;;
59416;SDS011;45222;52.458;20.914;2022-09-09T09:55:44;10.10;;;7.30;;
59416;SDS011;45222;52.458;20.914;2022-09-09T09:58:51;11.10;;;7.20;;
59416;SDS011;45222;52.458;20.914;2022-09-09T10:02:05;11.30;;;8.00;;
59416;SDS011;45222;52.458;20.914;2022-09-09T10:05:15;9.90;;;7.00;;
59416;SDS011;45222;52.458;20.914;2022-09-09T10:08:20;10.00;;;6.90;;
59416;SDS011;45222;52.458;20.914;2022-09-09T10:11:29;10.70;;;7.40;;
59416;SDS011;45222;52.458;20.914;2022-09-09T10:14:43;12.10;;;7.50;;
59416;SDS011;45222;52.458;20.914;2022-09-09T10:17:56;10.00;;;7.70;;
59416;SDS011;45222;52.458;20.914;2022-09-09T10:21:09;12.20;;;8.30;;
59416;SDS011;45222;52.458;20.914;2022-09-09T10:24:39;10.80;;;8.00;;
59416;SDS011;45222;52.458;20.914;2022-09-09T10:27:54;10.90;;;7.50;;
59416;SDS011;45222;52.458;20.914;2022-09-09T10:31:12;10.20;;;7.80;;
59416;SDS011;45222;52.458;20.914;2022-09-09T10:34:24;12.20;;;8.20;;
59416;SDS011;45222;52.458;20.914;2022-09-09T10:37:53;11.80;;;8.80;;
59416;SDS011;45222;52.458;20.914;2022-09-09T10:41:19;12.70;;;9.20;;
59416;SDS011;45222;52.458;20.914;2022-09-09T10:44:30;13.80;;;9.30;;
59416;SDS011;45222;52.458;20.914;2022-09-09T10:51:23;13.00;;;9.50;;
59416;SDS011;45222;52.458;20.914;2022-09-09T10:54:46;13.70;;;10.00;;
59416;SDS011;45222;52.458;20.914;2022-09-09T10:57:59;12.80;;;9.40;;
59416;SDS011;45222;52.458;20.914;2022-09-09T11:01:09;13.40;;;10.40;;
59416;SDS011;45222;52.458;20.914;2022-09-09T11:04:20;13.20;;;10.40;;
59416;SDS011;45222;52.458;20.914;2022-09-09T11:07:27;13.00;;;10.00;;
59416;SDS011;45222;52.458;20.914;2022-09-09T11:10:37;13.50;;;9.80;;
59416;SDS011;45222;52.458;20.914;2022-09-09T11:13:46;14.60;;;10.50;;
59416;SDS011;45222;52.458;20.914;2022-09-09T11:16:57;15.30;;;10.50;;
59416;SDS011;45222;52.458;20.914;2022-09-09T11:20:02;14.40;;;11.10;;
59416;SDS011;45222;52.458;20.914;2022-09-09T11:23:10;15.70;;;11.00;;
59416;SDS011;45222;52.458;20.914;2022-09-09T11:26:22;17.00;;;11.30;;
59416;SDS011;45222;52.458;20.914;2022-09-09T11:29:41;14.30;;;10.80;;
59416;SDS011;45222;52.458;20.914;2022-09-09T11:40:04;15.10;;;12.00;;
59416;SDS011;45222;52.458;20.914;2022-09-09T11:43:17;16.00;;;11.90;;
59416;SDS011;45222;52.458;20.914;2022-09-09T11:46:32;15.90;;;12.00;;
59416;SDS011;45222;52.458;20.914;2022-09-09T11:49:40;15.50;;;11.70;;
59416;SDS011;45222;52.458;20.914;2022-09-09T11:52:44;16.00;;;12.10;;
59416;SDS011;45222;52.458;20.914;2022-09-09T11:55:47;16.90;;;13.50;;
59416;SDS011;45222;52.458;20.914;2022-09-09T11:59:02;17.90;;;13.10;;
59416;SDS011;45222;52.458;20.914;2022-09-09T12:02:10;17.90;;;11.80;;
59416;SDS011;45222;52.458;20.914;2022-09-09T12:05:20;18.50;;;12.70;;
59416;SDS011;45222;52.458;20.914;2022-09-09T12:08:24;17.60;;;13.50;;
59416;SDS011;45222;52.458;20.914;2022-09-09T12:11:32;19.30;;;14.10;;
59416;SDS011;45222;52.458;20.914;2022-09-09T12:14:44;17.10;;;12.80;;
59416;SDS011;45222;52.458;20.914;2022-09-09T12:18:32;18.80;;;13.90;;
59416;SDS011;45222;52.458;20.914;2022-09-09T12:21:46;17.90;;;13.40;;
59416;SDS011;45222;52.458;20.914;2022-09-09T12:25:09;18.50;;;13.90;;
59416;SDS011;45222;52.458;20.914;2022-09-09T12:28:24;20.10;;;14.70;;
59416;SDS011;45222;52.458;20.914;2022-09-09T12:31:43;19.30;;;14.80;;
59416;SDS011;45222;52.458;20.914;2022-09-09T12:34:53;19.00;;;14.40;;
59416;SDS011;45222;52.458;20.914;2022-09-09T12:38:01;20.00;;;15.10;;
59416;SDS011;45222;52.458;20.914;2022-09-09T12:41:16;19.50;;;13.90;;
59416;SDS011;45222;52.458;20.914;2022-09-09T12:44:22;20.10;;;15.80;;
59416;SDS011;45222;52.458;20.914;2022-09-09T12:47:29;20.60;;;16.00;;
59416;SDS011;45222;52.458;20.914;2022-09-09T12:50:38;20.30;;;15.20;;
59416;SDS011;45222;52.458;20.914;2022-09-09T12:53:47;21.10;;;15.10;;
59416;SDS011;45222;52.458;20.914;2022-09-09T12:56:51;20.90;;;15.00;;
59416;SDS011;45222;52.458;20.914;2022-09-09T13:00:03;19.90;;;14.70;;
59416;SDS011;45222;52.458;20.914;2022-09-09T13:03:16;21.10;;;15.40;;
59416;SDS011;45222;52.458;20.914;2022-09-09T13:06:21;21.20;;;15.70;;
59416;SDS011;45222;52.458;20.914;2022-09-09T13:09:24;21.30;;;15.50;;
59416;SDS011;45222;52.458;20.914;2022-09-09T13:12:27;20.60;;;16.10;;
59416;SDS011;45222;52.458;20.914;2022-09-09T13:15:30;20.10;;;15.80;;
59416;SDS011;45222;52.458;20.914;2022-09-09T13:18:34;21.50;;;15.90;;
59416;SDS011;45222;52.458;20.914;2022-09-09T13:21:41;23.80;;;17.00;;
59416;SDS011;45222;52.458;20.914;2022-09-09T13:24:44;20.40;;;16.10;;
59416;SDS011;45222;52.458;20.914;2022-09-09T13:27:58;21.10;;;16.70;;
59416;SDS011;45222;52.458;20.914;2022-09-09T13:31:04;29.70;;;16.90;;
59416;SDS011;45222;52.458;20.914;2022-09-09T13:34:26;22.40;;;16.90;;
59416;SDS011;45222;52.458;20.914;2022-09-09T13:37:31;23.10;;;16.00;;
59416;SDS011;45222;52.458;20.914;2022-09-09T13:40:37;23.30;;;16.40;;
59416;SDS011;45222;52.458;20.914;2022-09-09T13:43:42;21.50;;;16.30;;
59416;SDS011;45222;52.458;20.914;2022-09-09T13:46:46;22.70;;;17.10;;
59416;SDS011;45222;52.458;20.914;2022-09-09T13:49:49;21.80;;;16.90;;
59416;SDS011;45222;52.458;20.914;2022-09-09T13:52:52;23.00;;;16.80;;
59416;SDS011;45222;52.458;20.914;2022-09-09T13:55:59;21.70;;;16.30;;
59416;SDS011;45222;52.458;20.914;2022-09-09T13:59:02;20.60;;;15.20;;
59416;SDS011;45222;52.458;20.914;2022-09-09T14:02:07;24.20;;;17.10;;
59416;SDS011;45222;52.458;20.914;2022-09-09T14:05:12;23.50;;;17.50;;
59416;SDS011;45222;52.458;20.914;2022-09-09T14:08:22;25.00;;;16.90;;
59416;SDS011;45222;52.458;20.914;2022-09-09T14:11:27;22.10;;;16.10;;
59416;SDS011;45222;52.458;20.914;2022-09-09T14:14:30;23.90;;;17.10;;
59416;SDS011;45222;52.458;20.914;2022-09-09T14:17:33;24.40;;;16.10;;
59416;SDS011;45222;52.458;20.914;2022-09-09T14:20:37;25.20;;;18.30;;
59416;SDS011;45222;52.458;20.914;2022-09-09T14:23:40;25.20;;;17.70;;
59416;SDS011;45222;52.458;20.914;2022-09-09T14:26:43;29.80;;;18.60;;
59416;SDS011;45222;52.458;20.914;2022-09-09T14:29:46;24.00;;;17.90;;
59416;SDS011;45222;52.458;20.914;2022-09-09T14:32:49;25.90;;;18.00;;
59416;SDS011;45222;52.458;20.914;2022-09-09T14:35:55;26.90;;;18.80;;
59416;SDS011;45222;52.458;20.914;2022-09-09T14:38:59;26.40;;;18.40;;
59416;SDS011;45222;52.458;20.914;2022-09-09T14:42:01;25.60;;;17.70;;
59416;SDS011;45222;52.458;20.914;2022-09-09T14:45:06;24.90;;;18.10;;
59416;SDS011;45222;52.458;20.914;2022-09-09T14:48:10;27.60;;;19.10;;
59416;SDS011;45222;52.458;20.914;2022-09-09T14:51:15;25.30;;;18.40;;
59416;SDS011;45222;52.458;20.914;2022-09-09T14:54:20;22.90;;;16.40;;
59416;SDS011;45222;52.458;20.914;2022-09-09T14:57:24;24.30;;;17.10;;
59416;SDS011;45222;52.458;20.914;2022-09-09T15:00:27;23.90;;;16.40;;
59416;SDS011;45222;52.458;20.914;2022-09-09T15:03:29;24.50;;;15.90;;
59416;SDS011;45222;52.458;20.914;2022-09-09T15:06:33;22.70;;;15.90;;
59416;SDS011;45222;52.458;20.914;2022-09-09T15:09:39;22.40;;;15.50;;
59416;SDS011;45222;52.458;20.914;2022-09-09T15:12:42;22.50;;;15.90;;
59416;SDS011;45222;52.458;20.914;2022-09-09T15:15:44;22.90;;;16.00;;
59416;SDS011;45222;52.458;20.914;2022-09-09T15:18:50;19.70;;;15.10;;
59416;SDS011;45222;52.458;20.914;2022-09-09T15:21:56;22.80;;;15.10;;
59416;SDS011;45222;52.458;20.914;2022-09-09T15:25:01;21.00;;;15.00;;
59416;SDS011;45222;52.458;20.914;2022-09-09T15:28:04;19.80;;;14.70;;
59416;SDS011;45222;52.458;20.914;2022-09-09T15:31:07;19.80;;;14.60;;
59416;SDS011;45222;52.458;20.914;2022-09-09T15:34:13;23.30;;;15.90;;
59416;SDS011;45222;52.458;20.914;2022-09-09T15:37:15;21.90;;;15.60;;
59416;SDS011;45222;52.458;20.914;2022-09-09T15:40:18;21.70;;;15.80;;
59416;SDS011;45222;52.458;20.914;2022-09-09T15:43:21;21.90;;;15.00;;
59416;SDS011;45222;52.458;20.914;2022-09-09T15:46:28;22.50;;;15.70;;
59416;SDS011;45222;52.458;20.914;2022-09-09T15:49:33;22.80;;;16.10;;
59416;SDS011;45222;52.458;20.914;2022-09-09T15:52:35;21.10;;;15.80;;
59416;SDS011;45222;52.458;20.914;2022-09-09T15:55:38;21.00;;;16.40;;
59416;SDS011;45222;52.458;20.914;2022-09-09T15:58:41;22.80;;;16.20;;
59416;SDS011;45222;52.458;20.914;2022-09-09T16:01:49;23.10;;;15.60;;
59416;SDS011;45222;52.458;20.914;2022-09-09T16:04:52;21.20;;;15.10;;
59416;SDS011;45222;52.458;20.914;2022-09-09T16:07:55;20.60;;;15.20;;
59416;SDS011;45222;52.458;20.914;2022-09-09T16:10:58;22.30;;;15.40;;
59416;SDS011;45222;52.458;20.914;2022-09-09T16:14:11;22.00;;;16.00;;
59416;SDS011;45222;52.458;20.914;2022-09-09T16:17:13;23.30;;;16.40;;
59416;SDS011;45222;52.458;20.914;2022-09-09T16:20:17;23.60;;;16.80;;
59416;SDS011;45222;52.458;20.914;2022-09-09T16:23:20;23.40;;;16.10;;
59416;SDS011;45222;52.458;20.914;2022-09-09T16:26:23;21.50;;;15.30;;
59416;SDS011;45222;52.458;20.914;2022-09-09T16:29:26;23.60;;;15.30;;
59416;SDS011;45222;52.458;20.914;2022-09-09T16:32:28;22.80;;;16.00;;
59416;SDS011;45222;52.458;20.914;2022-09-09T16:35:35;24.10;;;16.20;;
59416;SDS011;45222;52.458;20.914;2022-09-09T16:38:47;23.70;;;17.30;;
59416;SDS011;45222;52.458;20.914;2022-09-09T16:41:58;21.40;;;16.40;;
59416;SDS011;45222;52.458;20.914;2022-09-09T16:45:01;19.20;;;15.50;;
59416;SDS011;45222;52.458;20.914;2022-09-09T16:48:04;22.90;;;16.40;;
59416;SDS011;45222;52.458;20.914;2022-09-09T16:51:07;21.80;;;15.80;;
59416;SDS011;45222;52.458;20.914;2022-09-09T16:54:15;22.80;;;16.10;;
59416;SDS011;45222;52.458;20.914;2022-09-09T16:57:19;23.00;;;16.10;;
59416;SDS011;45222;52.458;20.914;2022-09-09T17:00:22;22.80;;;16.60;;
59416;SDS011;45222;52.458;20.914;2022-09-09T17:03:24;23.60;;;17.10;;
59416;SDS011;45222;52.458;20.914;2022-09-09T17:06:27;23.10;;;16.10;;
59416;SDS011;45222;52.458;20.914;2022-09-09T17:09:31;20.60;;;16.30;;
59416;SDS011;45222;52.458;20.914;2022-09-09T17:12:34;21.80;;;15.80;;
59416;SDS011;45222;52.458;20.914;2022-09-09T17:15:39;23.30;;;15.60;;
59416;SDS011;45222;52.458;20.914;2022-09-09T17:18:44;23.90;;;16.70;;
59416;SDS011;45222;52.458;20.914;2022-09-09T17:21:47;21.40;;;15.90;;
59416;SDS011;45222;52.458;20.914;2022-09-09T17:24:49;21.50;;;16.00;;
59416;SDS011;45222;52.458;20.914;2022-09-09T17:27:52;23.10;;;16.00;;
59416;SDS011;45222;52.458;20.914;2022-09-09T17:30:55;22.90;;;17.20;;
59416;SDS011;45222;52.458;20.914;2022-09-09T17:33:58;22.00;;;17.20;;
59416;SDS011;45222;52.458;20.914;2022-09-09T17:37:01;21.70;;;17.40;;
59416;SDS011;45222;52.458;20.914;2022-09-09T17:40:09;22.70;;;17.80;;
59416;SDS011;45222;52.458;20.914;2022-09-09T17:43:24;20.90;;;16.10;;
59416;SDS011;45222;52.458;20.914;2022-09-09T17:46:36;23.60;;;16.30;;
59416;SDS011;45222;52.458;20.914;2022-09-09T17:49:41;23.10;;;17.00;;
59416;SDS011;45222;52.458;20.914;2022-09-09T17:52:44;20.30;;;15.00;;
59416;SDS011;45222;52.458;20.914;2022-09-09T17:55:46;20.30;;;14.80;;
59416;SDS011;45222;52.458;20.914;2022-09-09T17:58:50;20.80;;;14.80;;
59416;SDS011;45222;52.458;20.914;2022-09-09T18:01:53;21.40;;;15.40;;
59416;SDS011;45222;52.458;20.914;2022-09-09T18:04:56;21.40;;;15.00;;
59416;SDS011;45222;52.458;20.914;2022-09-09T18:07:59;19.10;;;14.70;;
59416;SDS011;45222;52.458;20.914;2022-09-09T18:11:02;19.70;;;14.90;;
59416;SDS011;45222;52.458;20.914;2022-09-09T18:14:06;19.40;;;14.00;;
59416;SDS011;45222;52.458;20.914;2022-09-09T18:17:10;18.80;;;14.60;;
59416;SDS011;45222;52.458;20.914;2022-09-09T18:20:13;20.00;;;14.90;;
59416;SDS011;45222;52.458;20.914;2022-09-09T18:23:17;20.40;;;15.30;;
59416;SDS011;45222;52.458;20.914;2022-09-09T18:26:21;21.30;;;15.50;;
59416;SDS011;45222;52.458;20.914;2022-09-09T18:29:26;19.20;;;14.20;;
59416;SDS011;45222;52.458;20.914;2022-09-09T18:32:31;18.40;;;13.60;;